sensor_id;sensor_type;location;lat;lon;timestamp;P1;durP1;ratioP1;P2;durP2;ratioP2
38603;SDS011;24924;50.054;8.790;2023-04-19T00:00:05;2.90;;;1.50;;
38603;SDS011;24924;50.054;8.790;2023-04-19T00:02:33;3.15;;;1.90;;
38603;SDS011;24924;50.054;8.790;2023-04-19T00:04:59;2.90;;;1.50;;
38603;SDS011;24924;50.054;8.790;2023-04-19T00:07:26;2.90;;;1.63;;
38603;SDS011;24924;50.054;8.790;2023-04-19T00:09:52;2.95;;;1.60;;
38603;SDS011;24924;50.054;8.790;2023-04-19T00:12:18;2.80;;;1.45;;
38603;SDS011;24924;50.054;8.790;2023-04-19T00:14:44;2.80;;;1.43;;
38603;SDS011;24924;50.054;8.790;2023-04-19T00:17:10;2.90;;;1.70;;
38603;SDS011;24924;50.054;8.790;2023-04-19T00:19:36;2.80;;;1.50;;
38603;SDS011;24924;50.054;8.790;2023-04-19T00:22:02;3.00;;;1.77;;
38603;SDS011;24924;50.054;8.790;2023-04-19T00:24:28;3.00;;;1.83;;
38603;SDS011;24924;50.054;8.790;2023-04-19T00:26:54;3.13;;;1.77;;
38603;SDS011;24924;50.054;8.790;2023-04-19T00:29:21;2.80;;;1.40;;
38603;SDS011;24924;50.054;8.790;2023-04-19T00:31:47;3.55;;;1.92;;
38603;SDS011;24924;50.054;8.790;2023-04-19T00:34:13;3.00;;;1.80;;
38603;SDS011;24924;50.054;8.790;2023-04-19T00:36:39;3.35;;;2.10;;
38603;SDS011;24924;50.054;8.790;2023-04-19T00:39:05;2.80;;;1.35;;
38603;SDS011;24924;50.054;8.790;2023-04-19T00:41:31;2.90;;;1.52;;
38603;SDS011;24924;50.054;8.790;2023-04-19T00:43:57;2.90;;;1.50;;
38603;SDS011;24924;50.054;8.790;2023-04-19T00:46:23;2.83;;;1.42;;
38603;SDS011;24924;50.054;8.790;2023-04-19T00:48:49;3.05;;;1.88;;
38603;SDS011;24924;50.054;8.790;2023-04-19T00:51:15;3.93;;;2.13;;
38603;SDS011;24924;50.054;8.790;2023-04-19T00:53:42;2.80;;;1.40;;
38603;SDS011;24924;50.054;8.790;2023-04-19T00:56:08;2.90;;;1.50;;
38603;SDS011;24924;50.054;8.790;2023-04-19T00:58:35;2.95;;;1.63;;
38603;SDS011;24924;50.054;8.790;2023-04-19T01:01:02;3.00;;;1.50;;
38603;SDS011;24924;50.054;8.790;2023-04-19T01:03:30;2.80;;;1.40;;
38603;SDS011;24924;50.054;8.790;2023-04-19T01:05:56;2.85;;;1.50;;
38603;SDS011;24924;50.054;8.790;2023-04-19T01:08:22;2.90;;;1.50;;
38603;SDS011;24924;50.054;8.790;2023-04-19T01:10:52;3.00;;;1.75;;
38603;SDS011;24924;50.054;8.790;2023-04-19T01:13:18;2.90;;;1.40;;
38603;SDS011;24924;50.054;8.790;2023-04-19T01:15:46;2.90;;;1.60;;
38603;SDS011;24924;50.054;8.790;2023-04-19T01:18:13;2.90;;;1.40;;
38603;SDS011;24924;50.054;8.790;2023-04-19T01:20:38;3.10;;;1.83;;
38603;SDS011;24924;50.054;8.790;2023-04-19T01:23:05;2.92;;;1.50;;
38603;SDS011;24924;50.054;8.790;2023-04-19T01:25:35;2.90;;;1.63;;
38603;SDS011;24924;50.054;8.790;2023-04-19T01:28:02;3.13;;;1.70;;
38603;SDS011;24924;50.054;8.790;2023-04-19T01:30:28;2.88;;;1.48;;
38603;SDS011;24924;50.054;8.790;2023-04-19T01:32:54;2.80;;;1.40;;
38603;SDS011;24924;50.054;8.790;2023-04-19T01:35:20;2.80;;;1.40;;
38603;SDS011;24924;50.054;8.790;2023-04-19T01:37:46;3.47;;;1.70;;
38603;SDS011;24924;50.054;8.790;2023-04-19T01:40:12;3.00;;;1.80;;
38603;SDS011;24924;50.054;8.790;2023-04-19T01:42:38;2.90;;;1.60;;
38603;SDS011;24924;50.054;8.790;2023-04-19T01:45:04;3.00;;;1.80;;
38603;SDS011;24924;50.054;8.790;2023-04-19T01:47:31;2.90;;;1.60;;
38603;SDS011;24924;50.054;8.790;2023-04-19T01:49:57;2.88;;;1.50;;
38603;SDS011;24924;50.054;8.790;2023-04-19T01:52:23;3.65;;;1.80;;
38603;SDS011;24924;50.054;8.790;2023-04-19T01:54:48;3.53;;;2.00;;
38603;SDS011;24924;50.054;8.790;2023-04-19T01:57:14;3.17;;;1.60;;
38603;SDS011;24924;50.054;8.790;2023-04-19T01:59:40;2.90;;;1.60;;
38603;SDS011;24924;50.054;8.790;2023-04-19T02:02:06;2.90;;;1.50;;
38603;SDS011;24924;50.054;8.790;2023-04-19T02:04:33;2.70;;;1.30;;
38603;SDS011;24924;50.054;8.790;2023-04-19T02:06:59;3.25;;;1.85;;
38603;SDS011;24924;50.054;8.790;2023-04-19T02:09:27;3.42;;;1.70;;
38603;SDS011;24924;50.054;8.790;2023-04-19T02:11:53;2.80;;;1.40;;
38603;SDS011;24924;50.054;8.790;2023-04-19T02:14:20;2.90;;;1.60;;
38603;SDS011;24924;50.054;8.790;2023-04-19T02:16:45;3.50;;;2.40;;
38603;SDS011;24924;50.054;8.790;2023-04-19T02:19:12;2.80;;;1.40;;
38603;SDS011;24924;50.054;8.790;2023-04-19T02:21:39;2.80;;;1.45;;
38603;SDS011;24924;50.054;8.790;2023-04-19T02:24:05;3.00;;;1.70;;
38603;SDS011;24924;50.054;8.790;2023-04-19T02:26:31;2.80;;;1.40;;
38603;SDS011;24924;50.054;8.790;2023-04-19T02:28:57;2.92;;;1.60;;
38603;SDS011;24924;50.054;8.790;2023-04-19T02:31:24;2.80;;;1.40;;
38603;SDS011;24924;50.054;8.790;2023-04-19T02:33:50;2.80;;;1.40;;
38603;SDS011;24924;50.054;8.790;2023-04-19T02:36:16;2.90;;;1.60;;
38603;SDS011;24924;50.054;8.790;2023-04-19T02:38:41;3.00;;;1.77;;
38603;SDS011;24924;50.054;8.790;2023-04-19T02:41:07;2.90;;;1.50;;
38603;SDS011;24924;50.054;8.790;2023-04-19T02:43:37;3.30;;;1.60;;
38603;SDS011;24924;50.054;8.790;2023-04-19T02:46:03;2.97;;;1.60;;
38603;SDS011;24924;50.054;8.790;2023-04-19T02:48:30;2.83;;;1.35;;
38603;SDS011;24924;50.054;8.790;2023-04-19T02:50:56;3.20;;;1.63;;
38603;SDS011;24924;50.054;8.790;2023-04-19T02:53:22;2.85;;;1.45;;
38603;SDS011;24924;50.054;8.790;2023-04-19T02:55:49;2.80;;;1.40;;
38603;SDS011;24924;50.054;8.790;2023-04-19T02:58:17;3.05;;;1.60;;
38603;SDS011;24924;50.054;8.790;2023-04-19T03:00:55;2.80;;;1.40;;
38603;SDS011;24924;50.054;8.790;2023-04-19T03:03:21;5.17;;;2.03;;
38603;SDS011;24924;50.054;8.790;2023-04-19T03:05:47;3.20;;;1.70;;
38603;SDS011;24924;50.054;8.790;2023-04-19T03:08:13;3.30;;;2.28;;
38603;SDS011;24924;50.054;8.790;2023-04-19T03:10:40;3.00;;;1.70;;
38603;SDS011;24924;50.054;8.790;2023-04-19T03:13:07;2.83;;;1.50;;
38603;SDS011;24924;50.054;8.790;2023-04-19T03:15:33;2.90;;;1.50;;
38603;SDS011;24924;50.054;8.790;2023-04-19T03:17:59;3.00;;;1.83;;
38603;SDS011;24924;50.054;8.790;2023-04-19T03:20:25;3.13;;;1.75;;
38603;SDS011;24924;50.054;8.790;2023-04-19T03:22:51;2.80;;;1.40;;
38603;SDS011;24924;50.054;8.790;2023-04-19T03:25:18;3.60;;;1.55;;
38603;SDS011;24924;50.054;8.790;2023-04-19T03:27:50;5.75;;;1.63;;
38603;SDS011;24924;50.054;8.790;2023-04-19T03:30:24;3.35;;;1.92;;
38603;SDS011;24924;50.054;8.790;2023-04-19T03:32:50;2.90;;;1.57;;
38603;SDS011;24924;50.054;8.790;2023-04-19T03:35:16;3.03;;;1.80;;
38603;SDS011;24924;50.054;8.790;2023-04-19T03:37:42;3.10;;;2.10;;
38603;SDS011;24924;50.054;8.790;2023-04-19T03:40:08;3.30;;;2.03;;
38603;SDS011;24924;50.054;8.790;2023-04-19T03:42:35;3.15;;;1.98;;
38603;SDS011;24924;50.054;8.790;2023-04-19T03:45:09;2.90;;;1.57;;
38603;SDS011;24924;50.054;8.790;2023-04-19T03:47:39;2.80;;;1.30;;
38603;SDS011;24924;50.054;8.790;2023-04-19T03:50:06;3.00;;;1.70;;
38603;SDS011;24924;50.054;8.790;2023-04-19T03:52:33;2.97;;;1.65;;
38603;SDS011;24924;50.054;8.790;2023-04-19T03:55:00;3.13;;;2.05;;
38603;SDS011;24924;50.054;8.790;2023-04-19T03:57:36;5.10;;;1.70;;
38603;SDS011;24924;50.054;8.790;2023-04-19T04:00:09;3.10;;;1.60;;
38603;SDS011;24924;50.054;8.790;2023-04-19T04:02:41;2.90;;;1.60;;
38603;SDS011;24924;50.054;8.790;2023-04-19T04:05:09;2.80;;;1.30;;
38603;SDS011;24924;50.054;8.790;2023-04-19T04:07:36;2.80;;;1.42;;
38603;SDS011;24924;50.054;8.790;2023-04-19T04:10:02;2.90;;;1.60;;
38603;SDS011;24924;50.054;8.790;2023-04-19T04:12:33;2.90;;;1.50;;
38603;SDS011;24924;50.054;8.790;2023-04-19T04:15:01;3.28;;;1.58;;
38603;SDS011;24924;50.054;8.790;2023-04-19T04:17:28;3.38;;;1.75;;
38603;SDS011;24924;50.054;8.790;2023-04-19T04:19:55;2.90;;;1.63;;
38603;SDS011;24924;50.054;8.790;2023-04-19T04:22:24;2.90;;;1.50;;
38603;SDS011;24924;50.054;8.790;2023-04-19T04:24:50;3.25;;;1.58;;
38603;SDS011;24924;50.054;8.790;2023-04-19T04:27:22;3.40;;;1.83;;
38603;SDS011;24924;50.054;8.790;2023-04-19T04:29:51;2.90;;;1.60;;
38603;SDS011;24924;50.054;8.790;2023-04-19T04:32:17;3.17;;;1.65;;
38603;SDS011;24924;50.054;8.790;2023-04-19T04:34:49;2.87;;;1.50;;
38603;SDS011;24924;50.054;8.790;2023-04-19T04:37:24;2.90;;;1.60;;
38603;SDS011;24924;50.054;8.790;2023-04-19T04:39:51;2.90;;;1.50;;
38603;SDS011;24924;50.054;8.790;2023-04-19T04:42:17;2.80;;;1.35;;
38603;SDS011;24924;50.054;8.790;2023-04-19T04:44:46;4.07;;;1.83;;
38603;SDS011;24924;50.054;8.790;2023-04-19T04:47:12;3.00;;;1.70;;
38603;SDS011;24924;50.054;8.790;2023-04-19T04:49:48;3.00;;;1.70;;
38603;SDS011;24924;50.054;8.790;2023-04-19T04:52:15;3.10;;;1.80;;
38603;SDS011;24924;50.054;8.790;2023-04-19T04:54:52;2.97;;;1.67;;
38603;SDS011;24924;50.054;8.790;2023-04-19T04:57:25;3.53;;;1.85;;
38603;SDS011;24924;50.054;8.790;2023-04-19T04:59:51;2.90;;;1.60;;
38603;SDS011;24924;50.054;8.790;2023-04-19T05:02:18;2.90;;;1.70;;
38603;SDS011;24924;50.054;8.790;2023-04-19T05:04:44;4.55;;;2.40;;
38603;SDS011;24924;50.054;8.790;2023-04-19T05:07:10;2.92;;;1.70;;
38603;SDS011;24924;50.054;8.790;2023-04-19T05:09:36;2.80;;;1.40;;
38603;SDS011;24924;50.054;8.790;2023-04-19T05:12:02;3.08;;;1.83;;
38603;SDS011;24924;50.054;8.790;2023-04-19T05:14:29;3.20;;;1.98;;
38603;SDS011;24924;50.054;8.790;2023-04-19T05:16:55;3.50;;;1.73;;
38603;SDS011;24924;50.054;8.790;2023-04-19T05:19:23;2.80;;;1.40;;
38603;SDS011;24924;50.054;8.790;2023-04-19T05:21:55;3.37;;;2.37;;
38603;SDS011;24924;50.054;8.790;2023-04-19T05:24:21;3.05;;;1.95;;
38603;SDS011;24924;50.054;8.790;2023-04-19T05:26:49;3.13;;;2.08;;
38603;SDS011;24924;50.054;8.790;2023-04-19T05:29:16;2.85;;;1.50;;
38603;SDS011;24924;50.054;8.790;2023-04-19T05:31:45;2.90;;;1.60;;
38603;SDS011;24924;50.054;8.790;2023-04-19T05:34:21;2.83;;;1.47;;
38603;SDS011;24924;50.054;8.790;2023-04-19T05:36:47;3.10;;;1.90;;
38603;SDS011;24924;50.054;8.790;2023-04-19T05:39:13;2.90;;;1.50;;
38603;SDS011;24924;50.054;8.790;2023-04-19T05:41:39;2.90;;;1.55;;
38603;SDS011;24924;50.054;8.790;2023-04-19T05:44:05;3.17;;;1.80;;
38603;SDS011;24924;50.054;8.790;2023-04-19T05:46:32;2.80;;;1.48;;
38603;SDS011;24924;50.054;8.790;2023-04-19T05:48:59;4.00;;;2.63;;
38603;SDS011;24924;50.054;8.790;2023-04-19T05:51:25;3.53;;;2.00;;
38603;SDS011;24924;50.054;8.790;2023-04-19T05:54:04;3.20;;;1.70;;
38603;SDS011;24924;50.054;8.790;2023-04-19T05:56:30;3.30;;;1.70;;
38603;SDS011;24924;50.054;8.790;2023-04-19T05:58:56;3.05;;;1.55;;
38603;SDS011;24924;50.054;8.790;2023-04-19T06:01:26;3.78;;;2.15;;
38603;SDS011;24924;50.054;8.790;2023-04-19T06:03:52;3.10;;;1.80;;
38603;SDS011;24924;50.054;8.790;2023-04-19T06:06:21;4.15;;;2.25;;
38603;SDS011;24924;50.054;8.790;2023-04-19T06:08:47;2.90;;;1.60;;
38603;SDS011;24924;50.054;8.790;2023-04-19T06:11:13;3.00;;;1.90;;
38603;SDS011;24924;50.054;8.790;2023-04-19T06:13:40;2.90;;;1.70;;
38603;SDS011;24924;50.054;8.790;2023-04-19T06:16:06;3.20;;;1.70;;
38603;SDS011;24924;50.054;8.790;2023-04-19T06:18:32;2.80;;;1.40;;
38603;SDS011;24924;50.054;8.790;2023-04-19T06:20:58;2.90;;;1.63;;
38603;SDS011;24924;50.054;8.790;2023-04-19T06:23:24;3.65;;;2.13;;
38603;SDS011;24924;50.054;8.790;2023-04-19T06:25:51;2.80;;;1.30;;
38603;SDS011;24924;50.054;8.790;2023-04-19T06:28:17;2.80;;;1.48;;
38603;SDS011;24924;50.054;8.790;2023-04-19T06:30:43;2.80;;;1.40;;
38603;SDS011;24924;50.054;8.790;2023-04-19T06:33:09;3.28;;;1.83;;
38603;SDS011;24924;50.054;8.790;2023-04-19T06:35:35;2.90;;;1.50;;
38603;SDS011;24924;50.054;8.790;2023-04-19T06:38:02;2.90;;;1.70;;
38603;SDS011;24924;50.054;8.790;2023-04-19T06:40:28;3.20;;;1.77;;
38603;SDS011;24924;50.054;8.790;2023-04-19T06:42:54;2.88;;;1.50;;
38603;SDS011;24924;50.054;8.790;2023-04-19T06:45:21;3.20;;;1.85;;
38603;SDS011;24924;50.054;8.790;2023-04-19T06:47:47;2.80;;;1.43;;
38603;SDS011;24924;50.054;8.790;2023-04-19T06:50:13;2.80;;;1.40;;
38603;SDS011;24924;50.054;8.790;2023-04-19T06:52:39;2.80;;;1.40;;
38603;SDS011;24924;50.054;8.790;2023-04-19T06:55:05;2.88;;;1.50;;
38603;SDS011;24924;50.054;8.790;2023-04-19T06:57:31;2.90;;;1.40;;
38603;SDS011;24924;50.054;8.790;2023-04-19T06:59:57;3.00;;;1.50;;
38603;SDS011;24924;50.054;8.790;2023-04-19T07:02:23;2.85;;;1.48;;
38603;SDS011;24924;50.054;8.790;2023-04-19T07:04:49;2.90;;;1.55;;
38603;SDS011;24924;50.054;8.790;2023-04-19T07:07:15;3.03;;;1.63;;
38603;SDS011;24924;50.054;8.790;2023-04-19T07:09:41;2.90;;;1.65;;
38603;SDS011;24924;50.054;8.790;2023-04-19T07:12:07;6.82;;;2.08;;
38603;SDS011;24924;50.054;8.790;2023-04-19T07:14:33;2.80;;;1.30;;
38603;SDS011;24924;50.054;8.790;2023-04-19T07:16:59;2.90;;;1.60;;
38603;SDS011;24924;50.054;8.790;2023-04-19T07:19:25;2.80;;;1.40;;
38603;SDS011;24924;50.054;8.790;2023-04-19T07:21:53;2.90;;;1.70;;
38603;SDS011;24924;50.054;8.790;2023-04-19T07:24:20;3.33;;;1.80;;
38603;SDS011;24924;50.054;8.790;2023-04-19T07:26:46;2.72;;;1.30;;
38603;SDS011;24924;50.054;8.790;2023-04-19T07:29:12;3.75;;;2.08;;
38603;SDS011;24924;50.054;8.790;2023-04-19T07:31:38;2.90;;;1.57;;
38603;SDS011;24924;50.054;8.790;2023-04-19T07:34:07;2.80;;;1.30;;
38603;SDS011;24924;50.054;8.790;2023-04-19T07:36:33;3.13;;;1.60;;
38603;SDS011;24924;50.054;8.790;2023-04-19T07:39:01;2.92;;;1.50;;
38603;SDS011;24924;50.054;8.790;2023-04-19T07:41:29;2.70;;;1.20;;
38603;SDS011;24924;50.054;8.790;2023-04-19T07:43:56;2.90;;;1.50;;
38603;SDS011;24924;50.054;8.790;2023-04-19T07:46:21;3.00;;;1.83;;
38603;SDS011;24924;50.054;8.790;2023-04-19T07:48:47;2.70;;;1.30;;
38603;SDS011;24924;50.054;8.790;2023-04-19T07:51:14;2.95;;;1.38;;
38603;SDS011;24924;50.054;8.790;2023-04-19T07:53:41;2.80;;;1.30;;
38603;SDS011;24924;50.054;8.790;2023-04-19T07:56:07;2.83;;;1.50;;
38603;SDS011;24924;50.054;8.790;2023-04-19T07:58:36;2.92;;;1.50;;
38603;SDS011;24924;50.054;8.790;2023-04-19T08:01:03;3.20;;;1.60;;
38603;SDS011;24924;50.054;8.790;2023-04-19T08:03:30;2.70;;;1.30;;
38603;SDS011;24924;50.054;8.790;2023-04-19T08:05:59;3.00;;;1.60;;
38603;SDS011;24924;50.054;8.790;2023-04-19T08:08:26;2.80;;;1.40;;
38603;SDS011;24924;50.054;8.790;2023-04-19T08:10:52;2.75;;;1.25;;
38603;SDS011;24924;50.054;8.790;2023-04-19T08:13:21;3.57;;;1.67;;
38603;SDS011;24924;50.054;8.790;2023-04-19T08:15:47;2.80;;;1.30;;
38603;SDS011;24924;50.054;8.790;2023-04-19T08:18:13;3.10;;;1.70;;
38603;SDS011;24924;50.054;8.790;2023-04-19T08:20:39;2.80;;;1.40;;
38603;SDS011;24924;50.054;8.790;2023-04-19T08:23:07;2.90;;;1.50;;
38603;SDS011;24924;50.054;8.790;2023-04-19T08:25:33;2.87;;;1.47;;
38603;SDS011;24924;50.054;8.790;2023-04-19T08:28:00;2.70;;;1.23;;
38603;SDS011;24924;50.054;8.790;2023-04-19T08:30:26;2.80;;;1.40;;
38603;SDS011;24924;50.054;8.790;2023-04-19T08:32:52;2.80;;;1.30;;
38603;SDS011;24924;50.054;8.790;2023-04-19T08:35:17;2.80;;;1.30;;
38603;SDS011;24924;50.054;8.790;2023-04-19T08:37:43;2.70;;;1.20;;
38603;SDS011;24924;50.054;8.790;2023-04-19T08:40:09;2.80;;;1.40;;
38603;SDS011;24924;50.054;8.790;2023-04-19T08:42:35;2.80;;;1.30;;
38603;SDS011;24924;50.054;8.790;2023-04-19T08:45:01;2.92;;;1.38;;
38603;SDS011;24924;50.054;8.790;2023-04-19T08:47:33;3.00;;;1.35;;
38603;SDS011;24924;50.054;8.790;2023-04-19T08:50:01;2.70;;;1.20;;
38603;SDS011;24924;50.054;8.790;2023-04-19T08:52:28;3.83;;;1.47;;
38603;SDS011;24924;50.054;8.790;2023-04-19T08:54:57;2.80;;;1.40;;
38603;SDS011;24924;50.054;8.790;2023-04-19T08:57:23;2.80;;;1.40;;
38603;SDS011;24924;50.054;8.790;2023-04-19T08:59:49;3.05;;;1.92;;
38603;SDS011;24924;50.054;8.790;2023-04-19T09:02:20;3.03;;;1.42;;
38603;SDS011;24924;50.054;8.790;2023-04-19T09:04:46;2.90;;;1.50;;
38603;SDS011;24924;50.054;8.790;2023-04-19T09:07:22;2.80;;;1.30;;
38603;SDS011;24924;50.054;8.790;2023-04-19T09:10:05;3.00;;;1.60;;
38603;SDS011;24924;50.054;8.790;2023-04-19T09:12:36;2.70;;;1.20;;
38603;SDS011;24924;50.054;8.790;2023-04-19T09:15:03;2.80;;;1.30;;
38603;SDS011;24924;50.054;8.790;2023-04-19T09:17:32;2.80;;;1.23;;
38603;SDS011;24924;50.054;8.790;2023-04-19T09:19:59;3.10;;;1.65;;
38603;SDS011;24924;50.054;8.790;2023-04-19T09:22:25;2.80;;;1.30;;
38603;SDS011;24924;50.054;8.790;2023-04-19T09:24:51;2.80;;;1.20;;
38603;SDS011;24924;50.054;8.790;2023-04-19T09:27:35;2.70;;;1.20;;
38603;SDS011;24924;50.054;8.790;2023-04-19T09:30:02;3.10;;;1.50;;
38603;SDS011;24924;50.054;8.790;2023-04-19T09:32:28;2.90;;;1.60;;
38603;SDS011;24924;50.054;8.790;2023-04-19T09:35:12;2.80;;;1.30;;
38603;SDS011;24924;50.054;8.790;2023-04-19T09:37:38;2.70;;;1.20;;
38603;SDS011;24924;50.054;8.790;2023-04-19T09:40:24;3.33;;;1.57;;
38603;SDS011;24924;50.054;8.790;2023-04-19T09:42:50;2.90;;;1.30;;
38603;SDS011;24924;50.054;8.790;2023-04-19T09:45:16;3.03;;;1.50;;
38603;SDS011;24924;50.054;8.790;2023-04-19T09:47:43;2.70;;;1.10;;
38603;SDS011;24924;50.054;8.790;2023-04-19T09:50:09;2.80;;;1.30;;
38603;SDS011;24924;50.054;8.790;2023-04-19T09:52:35;2.70;;;1.15;;
38603;SDS011;24924;50.054;8.790;2023-04-19T09:55:03;2.70;;;1.20;;
38603;SDS011;24924;50.054;8.790;2023-04-19T09:57:30;2.80;;;1.30;;
38603;SDS011;24924;50.054;8.790;2023-04-19T09:59:57;2.80;;;1.30;;
38603;SDS011;24924;50.054;8.790;2023-04-19T10:02:24;2.70;;;1.20;;
38603;SDS011;24924;50.054;8.790;2023-04-19T10:04:55;2.75;;;1.25;;
38603;SDS011;24924;50.054;8.790;2023-04-19T10:07:22;2.80;;;1.30;;
38603;SDS011;24924;50.054;8.790;2023-04-19T10:09:49;3.35;;;1.73;;
38603;SDS011;24924;50.054;8.790;2023-04-19T10:12:17;2.80;;;1.30;;
38603;SDS011;24924;50.054;8.790;2023-04-19T10:14:44;2.70;;;1.20;;
38603;SDS011;24924;50.054;8.790;2023-04-19T10:17:10;2.70;;;1.17;;
38603;SDS011;24924;50.054;8.790;2023-04-19T10:19:36;2.92;;;1.42;;
38603;SDS011;24924;50.054;8.790;2023-04-19T10:22:04;2.80;;;1.10;;
38603;SDS011;24924;50.054;8.790;2023-04-19T10:24:32;2.70;;;1.15;;
38603;SDS011;24924;50.054;8.790;2023-04-19T10:27:08;3.45;;;1.45;;
38603;SDS011;24924;50.054;8.790;2023-04-19T10:32:38;3.22;;;1.50;;
38603;SDS011;24924;50.054;8.790;2023-04-19T10:35:08;6.07;;;1.53;;
38603;SDS011;24924;50.054;8.790;2023-04-19T10:37:42;2.90;;;1.40;;
38603;SDS011;24924;50.054;8.790;2023-04-19T10:43:16;3.17;;;1.65;;
38603;SDS011;24924;50.054;8.790;2023-04-19T10:45:43;2.75;;;1.20;;
38603;SDS011;24924;50.054;8.790;2023-04-19T10:50:58;2.70;;;1.20;;
38603;SDS011;24924;50.054;8.790;2023-04-19T10:56:10;3.50;;;1.50;;
38603;SDS011;24924;50.054;8.790;2023-04-19T11:01:33;2.60;;;1.03;;
38603;SDS011;24924;50.054;8.790;2023-04-19T11:04:03;2.70;;;1.30;;
38603;SDS011;24924;50.054;8.790;2023-04-19T11:09:24;2.70;;;1.20;;
38603;SDS011;24924;50.054;8.790;2023-04-19T11:12:01;2.70;;;1.10;;
38603;SDS011;24924;50.054;8.790;2023-04-19T11:14:34;2.70;;;1.10;;
38603;SDS011;24924;50.054;8.790;2023-04-19T11:17:12;2.70;;;1.38;;
38603;SDS011;24924;50.054;8.790;2023-04-19T11:19:59;2.78;;;1.25;;
38603;SDS011;24924;50.054;8.790;2023-04-19T11:24:56;2.70;;;1.10;;
38603;SDS011;24924;50.054;8.790;2023-04-19T11:27:22;3.13;;;1.50;;
38603;SDS011;24924;50.054;8.790;2023-04-19T11:29:48;2.60;;;1.00;;
38603;SDS011;24924;50.054;8.790;2023-04-19T11:32:14;2.90;;;1.20;;
38603;SDS011;24924;50.054;8.790;2023-04-19T11:34:40;3.50;;;1.50;;
38603;SDS011;24924;50.054;8.790;2023-04-19T11:37:09;2.90;;;1.55;;
38603;SDS011;24924;50.054;8.790;2023-04-19T11:39:43;3.63;;;1.53;;
38603;SDS011;24924;50.054;8.790;2023-04-19T11:42:16;2.70;;;1.10;;
38603;SDS011;24924;50.054;8.790;2023-04-19T11:44:47;2.70;;;1.20;;
38603;SDS011;24924;50.054;8.790;2023-04-19T11:47:17;3.00;;;1.35;;
38603;SDS011;24924;50.054;8.790;2023-04-19T11:49:44;2.70;;;1.20;;
38603;SDS011;24924;50.054;8.790;2023-04-19T11:52:10;2.60;;;1.00;;
38603;SDS011;24924;50.054;8.790;2023-04-19T11:54:36;2.60;;;1.00;;
38603;SDS011;24924;50.054;8.790;2023-04-19T11:57:05;3.17;;;1.30;;
38603;SDS011;24924;50.054;8.790;2023-04-19T11:59:32;2.70;;;1.10;;
38603;SDS011;24924;50.054;8.790;2023-04-19T12:02:09;2.70;;;1.00;;
38603;SDS011;24924;50.054;8.790;2023-04-19T12:04:36;2.60;;;1.00;;
38603;SDS011;24924;50.054;8.790;2023-04-19T12:07:03;2.60;;;0.93;;
38603;SDS011;24924;50.054;8.790;2023-04-19T12:09:34;2.65;;;1.02;;
38603;SDS011;24924;50.054;8.790;2023-04-19T12:12:01;2.70;;;1.20;;
38603;SDS011;24924;50.054;8.790;2023-04-19T12:14:27;2.70;;;1.10;;
38603;SDS011;24924;50.054;8.790;2023-04-19T12:17:06;2.70;;;1.20;;
38603;SDS011;24924;50.054;8.790;2023-04-19T12:19:34;2.70;;;1.10;;
38603;SDS011;24924;50.054;8.790;2023-04-19T12:22:07;2.78;;;1.30;;
38603;SDS011;24924;50.054;8.790;2023-04-19T12:24:34;2.97;;;1.20;;
38603;SDS011;24924;50.054;8.790;2023-04-19T12:27:01;3.28;;;1.15;;
38603;SDS011;24924;50.054;8.790;2023-04-19T12:29:26;2.80;;;1.40;;
38603;SDS011;24924;50.054;8.790;2023-04-19T12:31:53;2.90;;;1.30;;
38603;SDS011;24924;50.054;8.790;2023-04-19T12:34:19;2.85;;;1.17;;
38603;SDS011;24924;50.054;8.790;2023-04-19T12:36:45;2.72;;;1.10;;
38603;SDS011;24924;50.054;8.790;2023-04-19T12:39:11;2.70;;;1.10;;
38603;SDS011;24924;50.054;8.790;2023-04-19T12:41:37;2.70;;;1.20;;
38603;SDS011;24924;50.054;8.790;2023-04-19T12:44:03;2.70;;;1.20;;
38603;SDS011;24924;50.054;8.790;2023-04-19T12:46:30;2.53;;;0.90;;
38603;SDS011;24924;50.054;8.790;2023-04-19T12:48:56;2.70;;;1.00;;
38603;SDS011;24924;50.054;8.790;2023-04-19T12:51:22;2.70;;;1.10;;
38603;SDS011;24924;50.054;8.790;2023-04-19T12:53:49;2.63;;;1.00;;
38603;SDS011;24924;50.054;8.790;2023-04-19T12:56:14;2.60;;;1.10;;
38603;SDS011;24924;50.054;8.790;2023-04-19T12:58:41;2.80;;;1.30;;
38603;SDS011;24924;50.054;8.790;2023-04-19T13:01:07;2.70;;;1.17;;
38603;SDS011;24924;50.054;8.790;2023-04-19T13:03:33;2.70;;;1.10;;
38603;SDS011;24924;50.054;8.790;2023-04-19T13:06:00;3.20;;;1.20;;
38603;SDS011;24924;50.054;8.790;2023-04-19T13:08:27;2.70;;;1.20;;
38603;SDS011;24924;50.054;8.790;2023-04-19T13:10:56;2.70;;;1.10;;
38603;SDS011;24924;50.054;8.790;2023-04-19T13:13:23;2.70;;;1.10;;
38603;SDS011;24924;50.054;8.790;2023-04-19T13:15:50;2.60;;;1.08;;
38603;SDS011;24924;50.054;8.790;2023-04-19T13:18:16;2.70;;;1.20;;
38603;SDS011;24924;50.054;8.790;2023-04-19T13:20:42;2.60;;;1.00;;
38603;SDS011;24924;50.054;8.790;2023-04-19T13:23:07;2.70;;;1.07;;
38603;SDS011;24924;50.054;8.790;2023-04-19T13:25:33;2.67;;;1.02;;
38603;SDS011;24924;50.054;8.790;2023-04-19T13:27:59;2.60;;;1.00;;
38603;SDS011;24924;50.054;8.790;2023-04-19T13:30:26;2.70;;;1.23;;
38603;SDS011;24924;50.054;8.790;2023-04-19T13:32:52;2.60;;;1.00;;
38603;SDS011;24924;50.054;8.790;2023-04-19T13:35:18;2.63;;;1.00;;
38603;SDS011;24924;50.054;8.790;2023-04-19T13:37:43;2.70;;;1.10;;
38603;SDS011;24924;50.054;8.790;2023-04-19T13:40:11;2.60;;;1.00;;
38603;SDS011;24924;50.054;8.790;2023-04-19T13:42:37;3.05;;;1.45;;
38603;SDS011;24924;50.054;8.790;2023-04-19T13:45:04;2.50;;;0.90;;
38603;SDS011;24924;50.054;8.790;2023-04-19T13:47:30;2.70;;;1.10;;
38603;SDS011;24924;50.054;8.790;2023-04-19T13:49:56;2.58;;;0.98;;
38603;SDS011;24924;50.054;8.790;2023-04-19T13:52:22;2.50;;;0.82;;
38603;SDS011;24924;50.054;8.790;2023-04-19T13:54:48;2.37;;;0.80;;
38603;SDS011;24924;50.054;8.790;2023-04-19T13:57:14;2.50;;;0.90;;
38603;SDS011;24924;50.054;8.790;2023-04-19T13:59:39;3.03;;;1.40;;
38603;SDS011;24924;50.054;8.790;2023-04-19T14:02:05;2.50;;;0.70;;
38603;SDS011;24924;50.054;8.790;2023-04-19T14:04:31;2.35;;;0.70;;
38603;SDS011;24924;50.054;8.790;2023-04-19T14:06:57;2.60;;;0.90;;
38603;SDS011;24924;50.054;8.790;2023-04-19T14:09:23;2.63;;;0.90;;
38603;SDS011;24924;50.054;8.790;2023-04-19T14:11:50;2.40;;;0.67;;
38603;SDS011;24924;50.054;8.790;2023-04-19T14:14:15;2.40;;;0.80;;
38603;SDS011;24924;50.054;8.790;2023-04-19T14:16:42;2.40;;;0.75;;
38603;SDS011;24924;50.054;8.790;2023-04-19T14:19:08;2.70;;;0.90;;
38603;SDS011;24924;50.054;8.790;2023-04-19T14:21:34;2.75;;;0.70;;
38603;SDS011;24924;50.054;8.790;2023-04-19T14:23:59;2.70;;;0.80;;
38603;SDS011;24924;50.054;8.790;2023-04-19T14:26:25;2.50;;;0.73;;
38603;SDS011;24924;50.054;8.790;2023-04-19T14:28:51;2.50;;;0.70;;
38603;SDS011;24924;50.054;8.790;2023-04-19T14:31:17;2.27;;;0.60;;
38603;SDS011;24924;50.054;8.790;2023-04-19T14:33:42;2.20;;;0.70;;
38603;SDS011;24924;50.054;8.790;2023-04-19T14:36:09;2.10;;;0.65;;
38603;SDS011;24924;50.054;8.790;2023-04-19T14:38:34;2.80;;;0.97;;
38603;SDS011;24924;50.054;8.790;2023-04-19T14:41:00;2.38;;;0.88;;
38603;SDS011;24924;50.054;8.790;2023-04-19T14:43:27;2.38;;;0.70;;
38603;SDS011;24924;50.054;8.790;2023-04-19T14:45:53;2.30;;;0.70;;
38603;SDS011;24924;50.054;8.790;2023-04-19T14:48:19;2.50;;;0.70;;
38603;SDS011;24924;50.054;8.790;2023-04-19T14:50:45;3.00;;;1.10;;
38603;SDS011;24924;50.054;8.790;2023-04-19T14:53:11;3.00;;;1.25;;
38603;SDS011;24924;50.054;8.790;2023-04-19T14:55:37;2.50;;;0.70;;
38603;SDS011;24924;50.054;8.790;2023-04-19T14:58:04;2.85;;;1.00;;
38603;SDS011;24924;50.054;8.790;2023-04-19T15:00:30;2.90;;;0.80;;
38603;SDS011;24924;50.054;8.790;2023-04-19T15:02:56;2.42;;;0.77;;
38603;SDS011;24924;50.054;8.790;2023-04-19T15:05:22;2.72;;;0.70;;
38603;SDS011;24924;50.054;8.790;2023-04-19T15:07:48;3.13;;;0.80;;